sensor_id;sensor_type;location;lat;lon;timestamp;P1;durP1;ratioP1;P2;durP2;ratioP2
11269;SDS011;5692;48.956;9.200;2022-11-15T00:00:57;166.10;;;158.10;;
11269;SDS011;5692;48.956;9.200;2022-11-15T00:03:24;159.77;;;152.13;;
11269;SDS011;5692;48.956;9.200;2022-11-15T00:05:50;166.38;;;158.38;;
11269;SDS011;5692;48.956;9.200;2022-11-15T00:08:16;144.15;;;137.25;;
11269;SDS011;5692;48.956;9.200;2022-11-15T00:10:42;148.63;;;141.50;;
11269;SDS011;5692;48.956;9.200;2022-11-15T00:13:09;144.98;;;138.02;;
11269;SDS011;5692;48.956;9.200;2022-11-15T00:15:35;159.60;;;151.95;;
11269;SDS011;5692;48.956;9.200;2022-11-15T00:18:02;157.50;;;149.95;;
11269;SDS011;5692;48.956;9.200;2022-11-15T00:20:28;156.48;;;148.98;;
11269;SDS011;5692;48.956;9.200;2022-11-15T00:22:54;157.23;;;149.68;;
11269;SDS011;5692;48.956;9.200;2022-11-15T00:25:20;168.98;;;160.88;;
11269;SDS011;5692;48.956;9.200;2022-11-15T00:27:46;148.77;;;141.63;;
11269;SDS011;5692;48.956;9.200;2022-11-15T00:30:12;154.55;;;147.15;;
11269;SDS011;5692;48.956;9.200;2022-11-15T00:32:38;153.07;;;145.75;;
11269;SDS011;5692;48.956;9.200;2022-11-15T00:35:04;155.15;;;147.75;;
11269;SDS011;5692;48.956;9.200;2022-11-15T00:37:30;143.50;;;136.60;;
11269;SDS011;5692;48.956;9.200;2022-11-15T00:39:56;157.52;;;149.98;;
11269;SDS011;5692;48.956;9.200;2022-11-15T00:42:22;153.67;;;146.27;;
11269;SDS011;5692;48.956;9.200;2022-11-15T00:44:48;165.30;;;157.35;;
11269;SDS011;5692;48.956;9.200;2022-11-15T00:47:14;157.40;;;149.87;;
11269;SDS011;5692;48.956;9.200;2022-11-15T00:49:40;159.53;;;151.90;;
11269;SDS011;5692;48.956;9.200;2022-11-15T00:52:06;153.30;;;145.95;;
11269;SDS011;5692;48.956;9.200;2022-11-15T00:54:32;162.55;;;154.75;;
11269;SDS011;5692;48.956;9.200;2022-11-15T00:56:58;161.70;;;153.97;;
11269;SDS011;5692;48.956;9.200;2022-11-15T00:59:24;153.90;;;146.53;;
11269;SDS011;5692;48.956;9.200;2022-11-15T01:01:50;157.23;;;149.73;;
11269;SDS011;5692;48.956;9.200;2022-11-15T01:04:16;160.80;;;153.10;;
11269;SDS011;5692;48.956;9.200;2022-11-15T01:06:42;173.15;;;164.85;;
11269;SDS011;5692;48.956;9.200;2022-11-15T01:09:08;159.70;;;152.05;;
11269;SDS011;5692;48.956;9.200;2022-11-15T01:11:34;149.38;;;142.20;;
11269;SDS011;5692;48.956;9.200;2022-11-15T01:14:00;148.10;;;141.00;;
11269;SDS011;5692;48.956;9.200;2022-11-15T01:16:26;147.23;;;140.18;;
11269;SDS011;5692;48.956;9.200;2022-11-15T01:18:52;160.40;;;152.70;;
11269;SDS011;5692;48.956;9.200;2022-11-15T01:21:18;165.65;;;157.70;;
11269;SDS011;5692;48.956;9.200;2022-11-15T01:23:45;148.63;;;141.52;;
11269;SDS011;5692;48.956;9.200;2022-11-15T01:26:12;146.35;;;139.35;;
11269;SDS011;5692;48.956;9.200;2022-11-15T01:28:39;159.77;;;152.10;;
11269;SDS011;5692;48.956;9.200;2022-11-15T01:31:06;154.10;;;146.70;;
11269;SDS011;5692;48.956;9.200;2022-11-15T01:33:34;150.50;;;143.30;;
11269;SDS011;5692;48.956;9.200;2022-11-15T01:36:04;143.95;;;137.05;;
11269;SDS011;5692;48.956;9.200;2022-11-15T01:38:30;148.07;;;140.98;;
11269;SDS011;5692;48.956;9.200;2022-11-15T01:40:56;155.43;;;147.98;;
11269;SDS011;5692;48.956;9.200;2022-11-15T01:43:23;164.55;;;156.65;;
11269;SDS011;5692;48.956;9.200;2022-11-15T01:45:51;152.23;;;144.93;;
11269;SDS011;5692;48.956;9.200;2022-11-15T01:48:19;168.95;;;160.85;;
11269;SDS011;5692;48.956;9.200;2022-11-15T01:50:45;161.50;;;153.77;;
11269;SDS011;5692;48.956;9.200;2022-11-15T01:53:11;150.48;;;143.27;;
11269;SDS011;5692;48.956;9.200;2022-11-15T01:55:38;143.75;;;136.85;;
11269;SDS011;5692;48.956;9.200;2022-11-15T01:58:04;144.18;;;137.27;;
11269;SDS011;5692;48.956;9.200;2022-11-15T02:00:30;149.30;;;142.15;;
11269;SDS011;5692;48.956;9.200;2022-11-15T02:02:56;142.02;;;135.20;;
11269;SDS011;5692;48.956;9.200;2022-11-15T02:05:23;158.07;;;150.48;;
11269;SDS011;5692;48.956;9.200;2022-11-15T02:07:49;158.55;;;150.95;;
11269;SDS011;5692;48.956;9.200;2022-11-15T02:10:19;153.40;;;146.02;;
11269;SDS011;5692;48.956;9.200;2022-11-15T02:12:45;154.15;;;146.75;;
11269;SDS011;5692;48.956;9.200;2022-11-15T02:15:12;150.13;;;142.93;;
11269;SDS011;5692;48.956;9.200;2022-11-15T02:30:55;144.77;;;137.85;;
11269;SDS011;5692;48.956;9.200;2022-11-15T02:36:20;159.70;;;152.05;;
11269;SDS011;5692;48.956;9.200;2022-11-15T02:39:01;156.70;;;149.20;;
11269;SDS011;5692;48.956;9.200;2022-11-15T02:41:52;155.38;;;147.93;;
11269;SDS011;5692;48.956;9.200;2022-11-15T02:44:17;159.57;;;151.93;;
11269;SDS011;5692;48.956;9.200;2022-11-15T02:49:34;152.70;;;145.40;;
11269;SDS011;5692;48.956;9.200;2022-11-15T02:52:01;151.35;;;144.07;;
11269;SDS011;5692;48.956;9.200;2022-11-15T02:54:33;151.27;;;144.02;;
11269;SDS011;5692;48.956;9.200;2022-11-15T02:57:04;147.50;;;140.43;;
11269;SDS011;5692;48.956;9.200;2022-11-15T03:02:20;162.50;;;154.73;;
11269;SDS011;5692;48.956;9.200;2022-11-15T03:04:57;158.50;;;150.90;;
11269;SDS011;5692;48.956;9.200;2022-11-15T03:10:01;152.57;;;145.25;;
11269;SDS011;5692;48.956;9.200;2022-11-15T03:15:04;145.65;;;138.65;;
11269;SDS011;5692;48.956;9.200;2022-11-15T03:17:36;148.95;;;141.80;;
11269;SDS011;5692;48.956;9.200;2022-11-15T03:20:04;152.65;;;145.35;;
11269;SDS011;5692;48.956;9.200;2022-11-15T03:22:33;148.45;;;141.32;;
11269;SDS011;5692;48.956;9.200;2022-11-15T03:25:02;149.65;;;142.45;;
11269;SDS011;5692;48.956;9.200;2022-11-15T03:27:32;158.90;;;151.30;;
11269;SDS011;5692;48.956;9.200;2022-11-15T03:30:00;150.95;;;143.75;;
11269;SDS011;5692;48.956;9.200;2022-11-15T03:32:28;157.13;;;149.60;;
11269;SDS011;5692;48.956;9.200;2022-11-15T03:37:21;148.33;;;141.23;;
11269;SDS011;5692;48.956;9.200;2022-11-15T03:39:48;148.30;;;141.20;;
11269;SDS011;5692;48.956;9.200;2022-11-15T03:42:21;143.10;;;136.20;;
11269;SDS011;5692;48.956;9.200;2022-11-15T03:44:54;145.77;;;138.77;;
11269;SDS011;5692;48.956;9.200;2022-11-15T03:47:27;146.77;;;139.75;;
11269;SDS011;5692;48.956;9.200;2022-11-15T03:50:13;147.30;;;140.20;;
11269;SDS011;5692;48.956;9.200;2022-11-15T03:52:40;154.05;;;146.65;;
11269;SDS011;5692;48.956;9.200;2022-11-15T03:55:07;145.60;;;138.60;;
11269;SDS011;5692;48.956;9.200;2022-11-15T03:57:33;142.52;;;135.73;;
11269;SDS011;5692;48.956;9.200;2022-11-15T03:59:59;160.77;;;153.07;;
11269;SDS011;5692;48.956;9.200;2022-11-15T04:02:25;158.10;;;150.50;;
11269;SDS011;5692;48.956;9.200;2022-11-15T04:04:51;152.88;;;145.55;;
11269;SDS011;5692;48.956;9.200;2022-11-15T04:07:17;154.55;;;147.15;;
11269;SDS011;5692;48.956;9.200;2022-11-15T04:09:43;154.20;;;146.80;;
11269;SDS011;5692;48.956;9.200;2022-11-15T04:12:28;153.23;;;145.88;;
11269;SDS011;5692;48.956;9.200;2022-11-15T04:15:00;152.23;;;144.93;;
11269;SDS011;5692;48.956;9.200;2022-11-15T04:17:43;161.82;;;154.07;;
11269;SDS011;5692;48.956;9.200;2022-11-15T04:22:54;160.35;;;152.65;;
11269;SDS011;5692;48.956;9.200;2022-11-15T04:25:39;146.25;;;139.25;;
11269;SDS011;5692;48.956;9.200;2022-11-15T04:28:06;153.30;;;145.95;;
11269;SDS011;5692;48.956;9.200;2022-11-15T04:30:32;154.93;;;147.52;;
11269;SDS011;5692;48.956;9.200;2022-11-15T04:32:58;153.95;;;146.57;;
11269;SDS011;5692;48.956;9.200;2022-11-15T04:35:24;159.65;;;152.00;;
11269;SDS011;5692;48.956;9.200;2022-11-15T04:37:50;165.05;;;157.15;;
11269;SDS011;5692;48.956;9.200;2022-11-15T04:40:16;161.48;;;153.75;;
11269;SDS011;5692;48.956;9.200;2022-11-15T04:42:42;168.68;;;160.57;;
11269;SDS011;5692;48.956;9.200;2022-11-15T04:45:08;171.13;;;162.93;;
11269;SDS011;5692;48.956;9.200;2022-11-15T04:47:34;168.52;;;160.45;;
11269;SDS011;5692;48.956;9.200;2022-11-15T04:50:00;170.60;;;162.40;;
11269;SDS011;5692;48.956;9.200;2022-11-15T04:52:26;167.88;;;159.82;;
11269;SDS011;5692;48.956;9.200;2022-11-15T04:54:52;178.35;;;169.80;;
11269;SDS011;5692;48.956;9.200;2022-11-15T04:57:19;188.25;;;179.25;;
11269;SDS011;5692;48.956;9.200;2022-11-15T04:59:45;180.75;;;172.10;;
11269;SDS011;5692;48.956;9.200;2022-11-15T05:02:11;190.15;;;181.05;;
11269;SDS011;5692;48.956;9.200;2022-11-15T05:04:37;183.15;;;174.38;;
11269;SDS011;5692;48.956;9.200;2022-11-15T05:07:03;173.10;;;164.82;;
11269;SDS011;5692;48.956;9.200;2022-11-15T05:09:31;183.35;;;174.55;;
11269;SDS011;5692;48.956;9.200;2022-11-15T05:11:57;174.63;;;166.25;;
11269;SDS011;5692;48.956;9.200;2022-11-15T05:14:23;179.13;;;170.52;;
11269;SDS011;5692;48.956;9.200;2022-11-15T05:16:49;178.90;;;170.30;;
11269;SDS011;5692;48.956;9.200;2022-11-15T05:19:15;177.60;;;169.10;;
11269;SDS011;5692;48.956;9.200;2022-11-15T05:21:41;179.68;;;171.07;;
11269;SDS011;5692;48.956;9.200;2022-11-15T05:24:09;182.27;;;173.55;;
11269;SDS011;5692;48.956;9.200;2022-11-15T05:26:36;170.15;;;162.00;;
11269;SDS011;5692;48.956;9.200;2022-11-15T05:29:02;156.15;;;148.65;;
11269;SDS011;5692;48.956;9.200;2022-11-15T05:31:28;161.77;;;154.02;;
11269;SDS011;5692;48.956;9.200;2022-11-15T05:33:54;162.50;;;154.73;;
11269;SDS011;5692;48.956;9.200;2022-11-15T05:36:35;163.85;;;156.00;;
11269;SDS011;5692;48.956;9.200;2022-11-15T05:39:03;170.70;;;162.50;;
11269;SDS011;5692;48.956;9.200;2022-11-15T05:41:33;170.25;;;162.05;;
11269;SDS011;5692;48.956;9.200;2022-11-15T05:43:59;171.38;;;163.18;;
11269;SDS011;5692;48.956;9.200;2022-11-15T05:46:26;172.80;;;164.50;;
11269;SDS011;5692;48.956;9.200;2022-11-15T05:48:52;156.38;;;148.88;;
11269;SDS011;5692;48.956;9.200;2022-11-15T05:51:19;160.30;;;152.60;;
11269;SDS011;5692;48.956;9.200;2022-11-15T05:53:46;183.98;;;175.15;;
11269;SDS011;5692;48.956;9.200;2022-11-15T05:56:12;169.18;;;161.07;;
11269;SDS011;5692;48.956;9.200;2022-11-15T05:58:38;168.05;;;160.00;;
11269;SDS011;5692;48.956;9.200;2022-11-15T06:01:04;170.10;;;161.95;;
11269;SDS011;5692;48.956;9.200;2022-11-15T06:03:30;166.95;;;158.95;;
11269;SDS011;5692;48.956;9.200;2022-11-15T06:05:56;164.70;;;156.80;;
11269;SDS011;5692;48.956;9.200;2022-11-15T06:08:22;175.95;;;167.50;;
11269;SDS011;5692;48.956;9.200;2022-11-15T06:10:48;174.05;;;165.70;;
11269;SDS011;5692;48.956;9.200;2022-11-15T06:13:14;162.38;;;154.60;;
11269;SDS011;5692;48.956;9.200;2022-11-15T06:15:40;186.10;;;177.20;;
11269;SDS011;5692;48.956;9.200;2022-11-15T06:18:06;168.90;;;160.80;;
11269;SDS011;5692;48.956;9.200;2022-11-15T06:20:32;174.15;;;165.80;;
11269;SDS011;5692;48.956;9.200;2022-11-15T06:22:59;161.93;;;154.13;;
11269;SDS011;5692;48.956;9.200;2022-11-15T06:25:26;172.13;;;163.90;;
11269;SDS011;5692;48.956;9.200;2022-11-15T06:27:53;164.55;;;156.65;;
11269;SDS011;5692;48.956;9.200;2022-11-15T06:30:19;169.30;;;161.20;;
11269;SDS011;5692;48.956;9.200;2022-11-15T06:32:46;174.07;;;165.73;;
11269;SDS011;5692;48.956;9.200;2022-11-15T06:35:12;183.82;;;175.02;;
11269;SDS011;5692;48.956;9.200;2022-11-15T06:37:38;171.75;;;163.52;;
11269;SDS011;5692;48.956;9.200;2022-11-15T06:40:04;170.35;;;162.15;;
11269;SDS011;5692;48.956;9.200;2022-11-15T06:42:31;170.63;;;162.43;;
11269;SDS011;5692;48.956;9.200;2022-11-15T06:44:57;174.68;;;166.27;;
11269;SDS011;5692;48.956;9.200;2022-11-15T06:47:23;157.07;;;149.57;;
11269;SDS011;5692;48.956;9.200;2022-11-15T06:49:49;164.90;;;157.00;;
11269;SDS011;5692;48.956;9.200;2022-11-15T06:52:15;165.32;;;157.40;;
11269;SDS011;5692;48.956;9.200;2022-11-15T06:54:43;166.07;;;158.10;;
11269;SDS011;5692;48.956;9.200;2022-11-15T06:57:09;158.10;;;150.52;;
11269;SDS011;5692;48.956;9.200;2022-11-15T06:59:35;149.93;;;142.73;;
11269;SDS011;5692;48.956;9.200;2022-11-15T07:02:01;155.10;;;147.68;;
11269;SDS011;5692;48.956;9.200;2022-11-15T07:04:27;166.00;;;158.05;;
11269;SDS011;5692;48.956;9.200;2022-11-15T07:06:53;166.10;;;158.10;;
11269;SDS011;5692;48.956;9.200;2022-11-15T07:09:19;158.70;;;151.10;;
11269;SDS011;5692;48.956;9.200;2022-11-15T07:11:46;157.18;;;149.65;;
11269;SDS011;5692;48.956;9.200;2022-11-15T07:14:12;163.00;;;155.20;;
11269;SDS011;5692;48.956;9.200;2022-11-15T07:16:38;162.73;;;154.93;;
11269;SDS011;5692;48.956;9.200;2022-11-15T07:19:04;164.30;;;156.43;;
11269;SDS011;5692;48.956;9.200;2022-11-15T07:21:30;139.93;;;133.20;;
11269;SDS011;5692;48.956;9.200;2022-11-15T07:23:56;164.97;;;157.07;;
11269;SDS011;5692;48.956;9.200;2022-11-15T07:26:21;165.43;;;157.53;;
11269;SDS011;5692;48.956;9.200;2022-11-15T07:28:47;159.50;;;151.88;;
11269;SDS011;5692;48.956;9.200;2022-11-15T07:31:13;165.35;;;157.45;;
11269;SDS011;5692;48.956;9.200;2022-11-15T07:33:39;167.00;;;159.00;;
11269;SDS011;5692;48.956;9.200;2022-11-15T07:36:06;164.48;;;156.57;;
11269;SDS011;5692;48.956;9.200;2022-11-15T07:38:32;169.27;;;161.18;;
11269;SDS011;5692;48.956;9.200;2022-11-15T07:40:59;160.18;;;152.48;;
11269;SDS011;5692;48.956;9.200;2022-11-15T07:43:26;180.40;;;171.75;;
11269;SDS011;5692;48.956;9.200;2022-11-15T07:45:57;175.43;;;167.02;;
11269;SDS011;5692;48.956;9.200;2022-11-15T07:48:23;186.68;;;177.75;;
11269;SDS011;5692;48.956;9.200;2022-11-15T07:50:49;185.57;;;176.68;;
11269;SDS011;5692;48.956;9.200;2022-11-15T07:53:16;198.00;;;188.50;;
11269;SDS011;5692;48.956;9.200;2022-11-15T07:55:42;183.80;;;175.00;;
11269;SDS011;5692;48.956;9.200;2022-11-15T07:58:09;185.77;;;176.88;;
11269;SDS011;5692;48.956;9.200;2022-11-15T08:00:36;193.95;;;184.65;;
11269;SDS011;5692;48.956;9.200;2022-11-15T08:03:04;186.13;;;177.23;;
11269;SDS011;5692;48.956;9.200;2022-11-15T08:05:30;180.40;;;171.75;;
11269;SDS011;5692;48.956;9.200;2022-11-15T08:07:56;189.55;;;180.48;;
11269;SDS011;5692;48.956;9.200;2022-11-15T08:10:22;176.85;;;168.35;;
11269;SDS011;5692;48.956;9.200;2022-11-15T08:12:55;171.25;;;163.05;;
11269;SDS011;5692;48.956;9.200;2022-11-15T08:15:21;180.80;;;172.15;;
11269;SDS011;5692;48.956;9.200;2022-11-15T08:17:49;166.50;;;158.50;;
11269;SDS011;5692;48.956;9.200;2022-11-15T08:20:18;175.30;;;166.90;;
11269;SDS011;5692;48.956;9.200;2022-11-15T08:22:44;179.32;;;170.73;;
11269;SDS011;5692;48.956;9.200;2022-11-15T08:25:10;175.48;;;167.07;;
11269;SDS011;5692;48.956;9.200;2022-11-15T08:27:36;183.27;;;174.48;;
11269;SDS011;5692;48.956;9.200;2022-11-15T08:30:02;185.82;;;176.93;;
11269;SDS011;5692;48.956;9.200;2022-11-15T08:32:30;163.98;;;156.10;;
11269;SDS011;5692;48.956;9.200;2022-11-15T08:34:56;177.45;;;168.95;;
11269;SDS011;5692;48.956;9.200;2022-11-15T08:37:22;172.68;;;164.40;;
11269;SDS011;5692;48.956;9.200;2022-11-15T08:39:48;187.97;;;178.97;;
11269;SDS011;5692;48.956;9.200;2022-11-15T08:42:14;181.35;;;172.68;;
11269;SDS011;5692;48.956;9.200;2022-11-15T08:44:41;181.80;;;173.10;;
11269;SDS011;5692;48.956;9.200;2022-11-15T08:47:07;189.88;;;180.77;;
11269;SDS011;5692;48.956;9.200;2022-11-15T08:49:33;185.15;;;176.27;;
11269;SDS011;5692;48.956;9.200;2022-11-15T08:51:59;188.23;;;179.23;;
11269;SDS011;5692;48.956;9.200;2022-11-15T08:54:25;184.70;;;175.85;;
11269;SDS011;5692;48.956;9.200;2022-11-15T08:56:51;187.03;;;178.07;;
11269;SDS011;5692;48.956;9.200;2022-11-15T08:59:17;188.50;;;179.45;;
11269;SDS011;5692;48.956;9.200;2022-11-15T09:01:43;179.40;;;170.80;;
11269;SDS011;5692;48.956;9.200;2022-11-15T09:04:09;177.13;;;168.65;;
11269;SDS011;5692;48.956;9.200;2022-11-15T09:06:35;177.63;;;169.13;;
11269;SDS011;5692;48.956;9.200;2022-11-15T09:09:01;188.73;;;179.67;;
11269;SDS011;5692;48.956;9.200;2022-11-15T09:11:27;175.75;;;167.35;;
11269;SDS011;5692;48.956;9.200;2022-11-15T09:13:53;184.48;;;175.65;;
11269;SDS011;5692;48.956;9.200;2022-11-15T09:16:20;175.98;;;167.55;;
11269;SDS011;5692;48.956;9.200;2022-11-15T09:18:46;179.07;;;170.50;;
11269;SDS011;5692;48.956;9.200;2022-11-15T09:21:12;159.60;;;151.95;;
11269;SDS011;5692;48.956;9.200;2022-11-15T09:23:38;175.70;;;167.30;;
11269;SDS011;5692;48.956;9.200;2022-11-15T09:26:04;183.43;;;174.63;;
11269;SDS011;5692;48.956;9.200;2022-11-15T09:28:31;198.18;;;188.68;;
11269;SDS011;5692;48.956;9.200;2022-11-15T09:30:58;186.50;;;177.60;;
11269;SDS011;5692;48.956;9.200;2022-11-15T09:33:24;192.30;;;183.10;;
11269;SDS011;5692;48.956;9.200;2022-11-15T09:35:50;206.63;;;196.75;;
11269;SDS011;5692;48.956;9.200;2022-11-15T09:38:16;198.90;;;189.38;;
11269;SDS011;5692;48.956;9.200;2022-11-15T09:40:43;200.68;;;191.07;;
11269;SDS011;5692;48.956;9.200;2022-11-15T09:45:46;200.52;;;190.93;;
11269;SDS011;5692;48.956;9.200;2022-11-15T09:48:29;208.57;;;198.60;;
11269;SDS011;5692;48.956;9.200;2022-11-15T09:51:00;194.55;;;185.25;;
11269;SDS011;5692;48.956;9.200;2022-11-15T09:53:34;201.68;;;192.02;;
11269;SDS011;5692;48.956;9.200;2022-11-15T09:56:01;188.25;;;179.23;;
11269;SDS011;5692;48.956;9.200;2022-11-15T10:00:53;225.20;;;214.43;;
11269;SDS011;5692;48.956;9.200;2022-11-15T10:03:28;225.82;;;215.02;;
11269;SDS011;5692;48.956;9.200;2022-11-15T10:05:57;223.15;;;212.45;;
11269;SDS011;5692;48.956;9.200;2022-11-15T10:11:10;224.52;;;213.82;;
11269;SDS011;5692;48.956;9.200;2022-11-15T10:13:40;207.85;;;197.90;;
11269;SDS011;5692;48.956;9.200;2022-11-15T10:18:54;224.32;;;213.63;;
11269;SDS011;5692;48.956;9.200;2022-11-15T10:21:29;204.88;;;195.07;;
11269;SDS011;5692;48.956;9.200;2022-11-15T10:23:58;218.80;;;208.32;;
11269;SDS011;5692;48.956;9.200;2022-11-15T10:26:24;232.98;;;221.85;;
11269;SDS011;5692;48.956;9.200;2022-11-15T10:28:50;232.15;;;221.05;;
11269;SDS011;5692;48.956;9.200;2022-11-15T10:31:23;235.95;;;224.65;;
11269;SDS011;5692;48.956;9.200;2022-11-15T10:33:50;226.02;;;215.23;;
11269;SDS011;5692;48.956;9.200;2022-11-15T10:36:21;230.05;;;219.05;;
11269;SDS011;5692;48.956;9.200;2022-11-15T10:41:16;231.07;;;220.00;;
11269;SDS011;5692;48.956;9.200;2022-11-15T10:43:43;227.43;;;216.52;;
11269;SDS011;5692;48.956;9.200;2022-11-15T10:46:17;245.60;;;233.85;;
11269;SDS011;5692;48.956;9.200;2022-11-15T10:48:44;236.88;;;225.52;;
11269;SDS011;5692;48.956;9.200;2022-11-15T10:51:19;229.23;;;218.27;;
11269;SDS011;5692;48.956;9.200;2022-11-15T10:53:47;231.85;;;220.75;;
11269;SDS011;5692;48.956;9.200;2022-11-15T10:56:13;234.18;;;222.98;;
11269;SDS011;5692;48.956;9.200;2022-11-15T10:58:50;248.80;;;236.90;;
11269;SDS011;5692;48.956;9.200;2022-11-15T11:01:18;229.63;;;218.63;;
11269;SDS011;5692;48.956;9.200;2022-11-15T11:03:46;234.88;;;223.68;;
11269;SDS011;5692;48.956;9.200;2022-11-15T11:06:26;240.90;;;229.40;;
11269;SDS011;5692;48.956;9.200;2022-11-15T11:09:00;239.85;;;228.38;;
11269;SDS011;5692;48.956;9.200;2022-11-15T11:12:00;234.73;;;223.52;;
11269;SDS011;5692;48.956;9.200;2022-11-15T11:14:20;235.73;;;224.43;;
11269;SDS011;5692;48.956;9.200;2022-11-15T11:16:49;236.15;;;224.85;;
11269;SDS011;5692;48.956;9.200;2022-11-15T11:21:58;230.30;;;219.30;;
11269;SDS011;5692;48.956;9.200;2022-11-15T11:26:57;243.50;;;231.87;;
11269;SDS011;5692;48.956;9.200;2022-11-15T11:32:21;220.02;;;209.52;;
11269;SDS011;5692;48.956;9.200;2022-11-15T11:37:25;225.77;;;214.98;;
11269;SDS011;5692;48.956;9.200;2022-11-15T11:40:12;228.68;;;217.75;;
11269;SDS011;5692;48.956;9.200;2022-11-15T11:42:50;229.23;;;218.23;;
11269;SDS011;5692;48.956;9.200;2022-11-15T11:48:33;236.37;;;225.07;;
11269;SDS011;5692;48.956;9.200;2022-11-15T11:50:38;222.50;;;211.85;;
11269;SDS011;5692;48.956;9.200;2022-11-15T11:55:32;229.03;;;218.03;;
11269;SDS011;5692;48.956;9.200;2022-11-15T11:58:15;232.13;;;221.02;;
11269;SDS011;5692;48.956;9.200;2022-11-15T12:00:43;218.50;;;208.05;;
11269;SDS011;5692;48.956;9.200;2022-11-15T12:03:12;209.80;;;199.77;;
11269;SDS011;5692;48.956;9.200;2022-11-15T12:05:41;219.65;;;209.15;;
11269;SDS011;5692;48.956;9.200;2022-11-15T12:08:15;232.68;;;221.57;;
11269;SDS011;5692;48.956;9.200;2022-11-15T12:10:45;217.82;;;207.40;;
11269;SDS011;5692;48.956;9.200;2022-11-15T12:13:14;236.15;;;224.85;;
11269;SDS011;5692;48.956;9.200;2022-11-15T12:18:19;250.45;;;238.48;;
11269;SDS011;5692;48.956;9.200;2022-11-15T12:20:53;233.10;;;221.95;;
11269;SDS011;5692;48.956;9.200;2022-11-15T12:23:25;241.05;;;229.52;;
11269;SDS011;5692;48.956;9.200;2022-11-15T12:30:52;269.73;;;256.83;;
11269;SDS011;5692;48.956;9.200;2022-11-15T12:33:30;272.60;;;259.58;;
11269;SDS011;5692;48.956;9.200;2022-11-15T12:35:57;265.95;;;253.25;;
11269;SDS011;5692;48.956;9.200;2022-11-15T12:41:17;241.48;;;229.90;;
11269;SDS011;5692;48.956;9.200;2022-11-15T12:43:44;243.20;;;231.60;;
11269;SDS011;5692;48.956;9.200;2022-11-15T12:49:09;227.32;;;216.45;;
11269;SDS011;5692;48.956;9.200;2022-11-15T13:02:22;214.70;;;204.40;;
11269;SDS011;5692;48.956;9.200;2022-11-15T13:04:50;215.68;;;205.38;;
11269;SDS011;5692;48.956;9.200;2022-11-15T13:22:42;230.35;;;219.32;;
11269;SDS011;5692;48.956;9.200;2022-11-15T13:27:46;210.57;;;200.52;;
11269;SDS011;5692;48.956;9.200;2022-11-15T13:30:14;219.05;;;208.57;;
11269;SDS011;5692;48.956;9.200;2022-11-15T13:32:41;212.02;;;201.88;;
11269;SDS011;5692;48.956;9.200;2022-11-15T13:35:07;230.82;;;219.80;;
11269;SDS011;5692;48.956;9.200;2022-11-15T13:37:33;222.98;;;212.27;;
11269;SDS011;5692;48.956;9.200;2022-11-15T13:40:15;243.20;;;231.57;;
11269;SDS011;5692;48.956;9.200;2022-11-15T13:42:41;244.00;;;232.30;;
11269;SDS011;5692;48.956;9.200;2022-11-15T13:45:11;261.50;;;249.00;;
11269;SDS011;5692;48.956;9.200;2022-11-15T13:47:38;235.15;;;223.93;;
11269;SDS011;5692;48.956;9.200;2022-11-15T13:50:04;231.68;;;220.57;;
11269;SDS011;5692;48.956;9.200;2022-11-15T13:52:31;242.57;;;230.98;;
11269;SDS011;5692;48.956;9.200;2022-11-15T13:54:59;224.50;;;213.75;;
11269;SDS011;5692;48.956;9.200;2022-11-15T13:59:59;237.85;;;226.48;;
11269;SDS011;5692;48.956;9.200;2022-11-15T14:02:28;246.73;;;234.93;;
11269;SDS011;5692;48.956;9.200;2022-11-15T14:04:56;223.77;;;213.05;;
11269;SDS011;5692;48.956;9.200;2022-11-15T14:07:24;233.60;;;222.40;;
11269;SDS011;5692;48.956;9.200;2022-11-15T14:09:51;234.00;;;222.80;;
11269;SDS011;5692;48.956;9.200;2022-11-15T14:12:22;230.55;;;219.52;;
11269;SDS011;5692;48.956;9.200;2022-11-15T14:14:48;232.60;;;221.48;;
11269;SDS011;5692;48.956;9.200;2022-11-15T14:19:56;235.10;;;223.85;;
11269;SDS011;5692;48.956;9.200;2022-11-15T14:27:32;217.15;;;206.75;;
11269;SDS011;5692;48.956;9.200;2022-11-15T14:29:58;210.80;;;200.70;;
11269;SDS011;5692;48.956;9.200;2022-11-15T14:32:25;222.98;;;212.30;;
11269;SDS011;5692;48.956;9.200;2022-11-15T14:34:58;219.23;;;208.73;;
11269;SDS011;5692;48.956;9.200;2022-11-15T14:37:28;216.07;;;205.75;;
11269;SDS011;5692;48.956;9.200;2022-11-15T14:39:58;230.13;;;219.13;;
11269;SDS011;5692;48.956;9.200;2022-11-15T14:42:24;235.00;;;223.75;;
11269;SDS011;5692;48.956;9.200;2022-11-15T14:44:50;218.48;;;208.02;;
11269;SDS011;5692;48.956;9.200;2022-11-15T14:47:17;230.50;;;219.45;;
11269;SDS011;5692;48.956;9.200;2022-11-15T14:49:43;232.60;;;221.50;;
11269;SDS011;5692;48.956;9.200;2022-11-15T14:52:28;219.10;;;208.60;;
11269;SDS011;5692;48.956;9.200;2022-11-15T14:54:55;227.10;;;216.23;;
11269;SDS011;5692;48.956;9.200;2022-11-15T14:57:23;227.95;;;217.05;;
11269;SDS011;5692;48.956;9.200;2022-11-15T14:59:49;209.93;;;199.88;;
11269;SDS011;5692;48.956;9.200;2022-11-15T15:02:17;215.52;;;205.20;;
11269;SDS011;5692;48.956;9.200;2022-11-15T15:04:43;230.63;;;219.60;;
11269;SDS011;5692;48.956;9.200;2022-11-15T15:07:09;256.40;;;244.10;;
11269;SDS011;5692;48.956;9.200;2022-11-15T15:09:35;282.07;;;268.57;;
11269;SDS011;5692;48.956;9.200;2022-11-15T15:12:01;248.90;;;236.97;;
11269;SDS011;5692;48.956;9.200;2022-11-15T15:14:27;249.23;;;237.32;;
11269;SDS011;5692;48.956;9.200;2022-11-15T15:16:53;232.70;;;221.60;;
11269;SDS011;5692;48.956;9.200;2022-11-15T15:19:19;243.82;;;232.18;;
11269;SDS011;5692;48.956;9.200;2022-11-15T15:21:45;245.43;;;233.68;;
11269;SDS011;5692;48.956;9.200;2022-11-15T15:24:13;225.93;;;215.13;;
11269;SDS011;5692;48.956;9.200;2022-11-15T15:26:42;255.20;;;243.00;;
11269;SDS011;5692;48.956;9.200;2022-11-15T15:29:09;247.88;;;236.02;;
11269;SDS011;5692;48.956;9.200;2022-11-15T15:31:35;263.92;;;251.32;;
11269;SDS011;5692;48.956;9.200;2022-11-15T15:34:01;227.00;;;216.13;;
11269;SDS011;5692;48.956;9.200;2022-11-15T15:36:27;216.75;;;206.35;;
11269;SDS011;5692;48.956;9.200;2022-11-15T15:38:53;226.68;;;215.82;;
11269;SDS011;5692;48.956;9.200;2022-11-15T15:41:19;222.07;;;211.47;;
11269;SDS011;5692;48.956;9.200;2022-11-15T15:43:46;193.75;;;184.48;;
11269;SDS011;5692;48.956;9.200;2022-11-15T15:46:16;218.00;;;207.60;;
11269;SDS011;5692;48.956;9.200;2022-11-15T15:48:43;190.77;;;181.65;;
11269;SDS011;5692;48.956;9.200;2022-11-15T15:51:09;199.60;;;190.05;;
11269;SDS011;5692;48.956;9.200;2022-11-15T15:53:35;222.15;;;211.52;;
11269;SDS011;5692;48.956;9.200;2022-11-15T15:56:01;204.27;;;194.50;;
11269;SDS011;5692;48.956;9.200;2022-11-15T15:58:27;212.40;;;202.25;;
11269;SDS011;5692;48.956;9.200;2022-11-15T16:00:53;211.50;;;201.38;;
11269;SDS011;5692;48.956;9.200;2022-11-15T16:03:19;206.30;;;196.43;;
11269;SDS011;5692;48.956;9.200;2022-11-15T16:05:45;197.23;;;187.80;;